KJDN

Jordan Airport

Jordan, Montana, USA
METAR KJDN 180248Z AUTO 24009KT 03/M06 A2974 RMK AO1 SLP101 T00331056 50003
Observed Flight Rules
Dec-18 @ 02:48 UTC (20 minutes ago)
Wind
240° at 9 knots
Temperatures Readings
Current 3°C / 37°F
Dewpoint -6°C / 21°F
Humidity 52%
Altimeter 29.74" Hg
Pressure 1010.1 hPa
Elevation 801
METAR KJDN 180248Z AUTO 24009KT 03/M06 A2974 RMK AO1 SLP101 T00331056 50003
Observed Flight Rules
Dec-18 @ 02:48 UTC
(20 minutes ago)
Wind
240° at 9 knots
Temperature Dewpoint
3°C / 37°F -6°C / 21°F
Humidity Altimeter Pressure
52% 29.74" Hg 1010.1 hPa